Time;durP1;ratioP1;P1;durP2;ratioP2;P2;SDS_P1;SDS_P2;PMS_P1;PMS_P2;Temp;Humidity;BMP_temperature;BMP_pressure;BME280_temperature;BME280_humidity;BME280_pressure;Samples;Min_cycle;Max_cycle;Signal;HPM_P1;HPM_P2
2021/12/15 00:01:47;;;;;;;21.58;16.25;;;8.90;99.90;;;;;;5053081;28;20205;-58
2021/12/15 00:04:15;;;;;;;24.48;17.77;;;8.90;99.90;;;;;;5053386;28;20279;-58
2021/12/15 00:06:42;;;;;;;24.23;17.08;;;8.90;99.90;;;;;;5053311;28;20296;-58
2021/12/15 00:09:14;;;;;;;22.88;16.20;;;8.90;99.90;;;;;;5053322;28;20708;-58
2021/12/15 00:11:41;;;;;;;26.55;18.30;;;9.00;99.90;;;;;;5053015;28;20229;-58
2021/12/15 00:14:13;;;;;;;23.52;17.38;;;9.00;99.90;;;;;;5052973;28;20271;-58
2021/12/15 00:16:41;;;;;;;21.95;16.90;;;9.00;99.90;;;;;;5053022;28;20607;-58
2021/12/15 00:19:10;;;;;;;25.88;16.52;;;9.00;99.90;;;;;;5053536;28;20284;-59
2021/12/15 00:21:37;;;;;;;22.40;16.73;;;9.00;99.90;;;;;;5053072;28;20717;-58
2021/12/15 00:24:07;;;;;;;21.38;15.80;;;9.00;99.90;;;;;;5054255;28;20311;-58
2021/12/15 00:26:35;;;;;;;22.50;15.90;;;9.00;99.90;;;;;;5057580;28;20232;-58
2021/12/15 00:29:04;;;;;;;18.23;15.00;;;9.00;99.90;;;;;;5057101;28;20296;-58
2021/12/15 00:31:32;;;;;;;25.40;16.92;;;9.00;99.90;;;;;;5057585;28;20213;-58
2021/12/15 00:34:01;;;;;;;21.90;15.60;;;9.00;99.90;;;;;;5056908;28;20224;-58
2021/12/15 00:36:29;;;;;;;22.55;15.85;;;9.00;99.90;;;;;;5057351;28;20288;-58
2021/12/15 00:38:57;;;;;;;21.13;16.60;;;9.00;99.90;;;;;;5057148;28;20292;-60
2021/12/15 00:41:24;;;;;;;23.90;16.55;;;9.00;99.90;;;;;;5057310;28;20331;-59
2021/12/15 00:43:51;;;;;;;25.45;15.88;;;9.00;99.90;;;;;;5056911;28;20308;-59
2021/12/15 00:46:19;;;;;;;23.15;16.20;;;9.00;99.90;;;;;;5056989;28;20285;-58
2021/12/15 00:48:48;;;;;;;21.30;16.48;;;9.00;99.90;;;;;;5056688;28;20194;-58
2021/12/15 00:51:16;;;;;;;23.73;16.38;;;8.90;99.90;;;;;;5056592;28;20255;-60
2021/12/15 00:53:44;;;;;;;19.52;14.45;;;8.90;99.90;;;;;;5056793;28;20678;-59
2021/12/15 00:56:12;;;;;;;23.55;15.65;;;8.90;99.90;;;;;;5056886;28;20248;-58
2021/12/15 00:58:39;;;;;;;23.67;15.85;;;8.90;99.90;;;;;;5056830;28;20233;-59
2021/12/15 01:01:06;;;;;;;19.85;14.60;;;8.90;99.90;;;;;;5057020;28;20233;-60
2021/12/15 01:03:34;;;;;;;20.40;13.82;;;8.90;99.90;;;;;;5056649;28;20256;-59
2021/12/15 01:06:06;;;;;;;21.77;15.88;;;9.00;99.90;;;;;;5056670;28;20201;-59
2021/12/15 01:08:38;;;;;;;21.55;15.80;;;8.90;99.90;;;;;;5056312;28;20289;-59
2021/12/15 01:11:15;;;;;;;19.70;14.40;;;9.00;99.90;;;;;;5056508;28;20182;-59
2021/12/15 01:19:49;;;;;;;20.00;14.13;;;9.00;99.90;;;;;;5056492;28;20181;-59
2021/12/15 01:22:19;;;;;;;22.15;14.40;;;9.00;99.90;;;;;;5056346;28;20637;-59
2021/12/15 01:24:46;;;;;;;21.15;14.30;;;9.00;99.90;;;;;;5055777;28;20213;-59
2021/12/15 01:27:15;;;;;;;18.80;13.32;;;9.00;99.90;;;;;;5056213;28;20228;-59
2021/12/15 01:29:43;;;;;;;18.92;13.75;;;9.00;99.90;;;;;;5055765;28;20205;-59
2021/12/15 01:32:10;;;;;;;20.55;14.00;;;9.00;99.90;;;;;;5056135;28;20292;-59
2021/12/15 01:34:38;;;;;;;18.27;13.75;;;9.10;99.90;;;;;;5055945;28;20316;-59
2021/12/15 01:37:05;;;;;;;20.08;14.05;;;9.10;99.90;;;;;;5054930;28;20298;-60
2021/12/15 01:39:33;;;;;;;19.67;14.23;;;9.10;99.90;;;;;;5055713;28;20285;-59
2021/12/15 01:42:00;;;;;;;17.63;13.85;;;9.10;99.90;;;;;;5055958;28;20574;-59
2021/12/15 01:47:16;;;;;;;18.67;12.98;;;9.10;99.90;;;;;;5029901;28;20673;-59
2021/12/15 01:49:45;;;;;;;15.93;12.60;;;9.10;99.90;;;;;;5055351;28;20233;-60
2021/12/15 01:52:16;;;;;;;15.15;12.60;;;9.10;99.90;;;;;;5055327;28;20249;-59
2021/12/15 01:54:52;;;;;;;17.85;13.20;;;9.10;99.90;;;;;;5055466;28;20654;-59
2021/12/15 01:57:20;;;;;;;18.08;12.95;;;9.10;99.90;;;;;;5055256;28;20186;-59
2021/12/15 01:59:51;;;;;;;18.25;14.27;;;9.10;99.90;;;;;;5055596;28;20305;-59
2021/12/15 02:02:19;;;;;;;17.95;12.73;;;9.20;99.90;;;;;;5055211;28;20276;-59
2021/12/15 02:04:48;;;;;;;20.48;14.00;;;9.20;99.90;;;;;;5055434;28;20289;-59
2021/12/15 02:07:18;;;;;;;22.02;14.25;;;9.20;99.90;;;;;;5055404;28;20289;-60
2021/12/15 02:12:34;;;;;;;19.08;14.02;;;9.20;99.90;;;;;;5053221;28;20232;-60
2021/12/15 02:15:07;;;;;;;22.95;15.23;;;9.20;99.90;;;;;;5054870;28;20206;-59
2021/12/15 02:17:34;;;;;;;19.95;14.73;;;9.20;99.90;;;;;;5055022;28;20217;-59
2021/12/15 02:20:02;;;;;;;25.27;15.93;;;9.20;99.90;;;;;;5055022;28;20301;-59
2021/12/15 02:22:31;;;;;;;25.30;18.02;;;9.20;99.90;;;;;;5054898;28;20201;-59
2021/12/15 02:24:58;;;;;;;22.75;15.90;;;9.10;99.90;;;;;;5055112;28;20185;-59
2021/12/15 02:27:31;;;;;;;21.80;15.27;;;9.20;99.90;;;;;;5055096;28;20611;-59
2021/12/15 02:30:06;;;;;;;25.10;17.45;;;9.20;99.90;;;;;;5054665;28;20186;-59
2021/12/15 02:32:46;;;;;;;24.70;17.10;;;9.20;99.90;;;;;;5054663;28;20205;-59
2021/12/15 02:38:00;;;;;;;22.45;16.25;;;9.20;99.90;;;;;;5054944;28;20185;-59
2021/12/15 02:40:27;;;;;;;25.02;17.20;;;9.20;99.90;;;;;;5054752;28;20633;-59
2021/12/15 02:42:54;;;;;;;25.83;16.98;;;9.20;99.90;;;;;;5055215;28;20268;-60
2021/12/15 02:45:24;;;;;;;23.40;15.80;;;9.10;99.90;;;;;;5054257;28;20288;-59
2021/12/15 02:47:52;;;;;;;25.17;17.38;;;9.20;99.90;;;;;;5053639;28;20209;-59
2021/12/15 02:50:23;;;;;;;24.27;16.25;;;9.20;99.90;;;;;;5054746;28;20289;-59
2021/12/15 02:52:51;;;;;;;27.27;17.95;;;9.20;99.90;;;;;;5054300;28;20313;-58
2021/12/15 02:55:19;;;;;;;27.83;18.20;;;9.20;99.90;;;;;;5054437;28;20312;-58
2021/12/15 02:57:48;;;;;;;25.65;18.45;;;9.20;99.90;;;;;;5054501;28;20628;-59
2021/12/15 03:00:19;;;;;;;25.98;16.30;;;9.20;99.90;;;;;;5054450;28;20313;-58
2021/12/15 03:05:48;;;;;;;24.45;16.90;;;9.20;99.90;;;;;;5054222;28;20174;-59
2021/12/15 03:08:19;;;;;;;26.77;16.80;;;9.20;99.90;;;;;;5054373;28;20200;-59
2021/12/15 03:16:21;;;;;;;26.40;18.25;;;9.20;99.90;;;;;;5054224;28;20185;-59
2021/12/15 03:18:48;;;;;;;26.13;17.13;;;9.20;99.90;;;;;;5053603;28;20744;-59
2021/12/15 03:21:21;;;;;;;24.85;17.90;;;9.20;99.90;;;;;;5053660;28;20288;-59
2021/12/15 03:23:53;;;;;;;26.23;19.10;;;9.20;99.90;;;;;;5053557;28;20229;-59
2021/12/15 03:26:25;;;;;;;28.05;19.40;;;9.20;99.90;;;;;;5053533;28;20193;-59
2021/12/15 03:34:42;;;;;;;25.25;18.00;;;9.30;99.90;;;;;;5053365;28;20232;-58
2021/12/15 03:37:23;;;;;;;25.95;17.20;;;9.30;99.90;;;;;;5053339;28;20235;-59
2021/12/15 03:39:52;;;;;;;24.67;17.85;;;9.30;99.90;;;;;;5053623;28;20208;-59
2021/12/15 03:42:25;;;;;;;25.23;17.98;;;9.30;99.90;;;;;;5053339;28;20237;-59
2021/12/15 03:44:54;;;;;;;26.25;17.98;;;9.30;99.90;;;;;;5053555;28;20232;-59
2021/12/15 03:47:25;;;;;;;27.80;18.00;;;9.30;99.90;;;;;;5053073;28;20292;-59
2021/12/15 03:49:55;;;;;;;25.05;18.40;;;9.30;99.90;;;;;;5053122;28;20225;-58
2021/12/15 03:52:23;;;;;;;25.67;17.45;;;9.40;99.90;;;;;;5053297;28;20248;-59
2021/12/15 03:54:51;;;;;;;23.80;17.25;;;9.40;99.90;;;;;;5053030;28;20312;-59
2021/12/15 03:57:20;;;;;;;21.95;16.92;;;9.40;99.90;;;;;;5053059;28;20744;-59
2021/12/15 03:59:49;;;;;;;22.88;17.83;;;9.40;99.90;;;;;;5052801;28;20285;-59
2021/12/15 04:02:21;;;;;;;25.63;18.48;;;9.40;99.90;;;;;;5053138;28;20297;-58
2021/12/15 04:04:50;;;;;;;24.85;16.13;;;9.40;99.90;;;;;;5052959;28;20217;-58
2021/12/15 04:09:06;;;;;;;21.60;15.10;;;9.40;99.90;;;;;;5111735;27;20617;-57
2021/12/15 04:11:36;;;;;;;26.00;18.90;;;9.40;99.90;;;;;;5110889;28;20260;-59
2021/12/15 04:14:04;;;;;;;24.27;17.42;;;9.40;99.90;;;;;;5111385;28;20223;-57
2021/12/15 04:16:45;;;;;;;22.73;15.73;;;9.40;99.90;;;;;;5111267;28;20238;-57
2021/12/15 04:19:18;;;;;;;23.55;16.20;;;9.40;99.90;;;;;;5110848;28;20658;-58
2021/12/15 04:21:48;;;;;;;22.15;16.13;;;9.40;99.90;;;;;;5111153;28;20184;-58
2021/12/15 04:24:19;;;;;;;23.25;15.27;;;9.40;99.90;;;;;;5096122;22;20249;-61
2021/12/15 04:26:48;;;;;;;20.45;15.25;;;9.40;99.90;;;;;;5053166;28;20202;-62
2021/12/15 04:29:15;;;;;;;17.98;14.75;;;9.40;99.90;;;;;;5053192;28;20266;-60
2021/12/15 04:31:47;;;;;;;22.80;15.20;;;9.40;99.90;;;;;;5053087;28;20297;-61
2021/12/15 04:34:15;;;;;;;22.30;16.05;;;9.40;99.90;;;;;;5051808;28;20305;-61
2021/12/15 04:36:45;;;;;;;19.65;14.45;;;9.40;99.90;;;;;;5051766;28;20201;-62
2021/12/15 04:39:15;;;;;;;18.95;14.63;;;9.50;99.90;;;;;;5051548;28;20222;-61
2021/12/15 04:41:49;;;;;;;21.42;16.17;;;9.50;99.90;;;;;;5050839;28;20265;-62
2021/12/15 04:44:17;;;;;;;18.92;13.63;;;9.50;99.90;;;;;;5051131;28;20232;-62
2021/12/15 04:46:48;;;;;;;20.67;13.77;;;9.50;99.90;;;;;;5051287;28;20201;-61
2021/12/15 04:49:19;;;;;;;22.48;16.10;;;9.50;99.90;;;;;;5052098;28;20269;-62
2021/12/15 04:51:48;;;;;;;21.58;14.05;;;9.50;99.90;;;;;;5052118;28;20186;-61
2021/12/15 04:54:16;;;;;;;19.33;14.60;;;9.50;99.90;;;;;;5051539;28;20226;-62
2021/12/15 04:56:45;;;;;;;16.83;14.95;;;9.50;99.90;;;;;;5051907;28;20244;-62
2021/12/15 04:59:14;;;;;;;20.55;15.20;;;9.60;99.90;;;;;;5052275;28;20237;-61
2021/12/15 05:01:41;;;;;;;24.33;15.35;;;9.60;99.90;;;;;;5052468;28;20237;-63
2021/12/15 05:04:09;;;;;;;22.35;16.08;;;9.60;99.90;;;;;;5051772;28;20264;-62
2021/12/15 05:06:36;;;;;;;22.58;15.85;;;9.60;99.90;;;;;;5050452;28;20663;-61
2021/12/15 05:09:05;;;;;;;19.90;14.95;;;9.50;99.90;;;;;;5050403;28;20312;-61
2021/12/15 05:11:32;;;;;;;19.80;15.73;;;9.50;99.90;;;;;;5050508;28;20240;-62
2021/12/15 05:14:01;;;;;;;23.65;15.95;;;9.50;99.90;;;;;;5050312;28;20257;-61
2021/12/15 05:16:28;;;;;;;24.48;16.35;;;9.40;99.90;;;;;;5049668;28;20249;-62
2021/12/15 05:18:56;;;;;;;22.20;16.00;;;9.40;99.90;;;;;;5044516;28;20285;-62
2021/12/15 05:21:24;;;;;;;23.48;16.38;;;9.40;99.90;;;;;;5036908;28;20233;-61
2021/12/15 05:23:56;;;;;;;22.40;16.88;;;9.40;99.90;;;;;;5036224;28;20226;-61
2021/12/15 05:26:25;;;;;;;21.13;15.18;;;9.40;99.90;;;;;;5036921;28;20201;-62
2021/12/15 05:28:52;;;;;;;22.35;16.02;;;9.40;99.90;;;;;;5036417;28;20218;-62
2021/12/15 05:31:21;;;;;;;22.08;16.50;;;9.50;99.90;;;;;;5037613;28;20292;-63
2021/12/15 05:33:51;;;;;;;20.60;15.55;;;9.50;99.90;;;;;;5038057;28;20246;-61
2021/12/15 05:36:21;;;;;;;22.50;15.20;;;9.50;99.90;;;;;;5036618;28;20596;-62
2021/12/15 05:38:48;;;;;;;22.05;17.73;;;9.50;99.90;;;;;;5036241;28;20205;-62
2021/12/15 05:41:18;;;;;;;20.63;15.23;;;9.50;99.90;;;;;;5035810;28;20241;-62
2021/12/15 05:43:46;;;;;;;18.60;15.40;;;9.50;99.90;;;;;;5035986;28;20781;-61
2021/12/15 05:46:14;;;;;;;21.42;15.73;;;9.50;99.90;;;;;;5036064;28;20210;-61
2021/12/15 05:48:42;;;;;;;19.25;15.23;;;9.50;99.90;;;;;;5036156;28;20317;-62
2021/12/15 05:51:10;;;;;;;22.73;17.77;;;9.60;99.90;;;;;;5036192;28;20733;-62
2021/12/15 05:53:39;;;;;;;20.25;14.95;;;9.60;99.90;;;;;;5036437;28;20414;-61
2021/12/15 05:56:07;;;;;;;24.40;17.45;;;9.60;99.90;;;;;;5036392;28;20213;-62
2021/12/15 05:58:34;;;;;;;22.30;16.65;;;9.60;99.90;;;;;;5036519;28;20213;-60
2021/12/15 06:01:02;;;;;;;22.92;16.55;;;9.70;99.90;;;;;;5037180;28;20203;-61
2021/12/15 06:03:29;;;;;;;23.70;16.80;;;9.60;99.90;;;;;;5037221;28;20227;-62
2021/12/15 06:05:58;;;;;;;26.20;17.95;;;9.60;99.90;;;;;;5036948;28;20234;-60
2021/12/15 06:08:25;;;;;;;27.23;18.77;;;9.70;99.90;;;;;;5036236;28;20775;-61
2021/12/15 06:10:53;;;;;;;25.83;18.95;;;9.70;99.90;;;;;;5036975;28;20274;-60
2021/12/15 06:13:25;;;;;;;31.42;20.27;;;9.60;99.90;;;;;;5036863;28;20286;-60
2021/12/15 06:15:53;;;;;;;30.73;21.45;;;9.60;99.90;;;;;;5036989;28;20209;-61
2021/12/15 06:18:22;;;;;;;32.72;21.95;;;9.60;99.90;;;;;;5037053;28;20252;-61
2021/12/15 06:20:51;;;;;;;32.15;21.95;;;9.50;99.90;;;;;;5036380;28;20234;-61
2021/12/15 06:23:22;;;;;;;33.85;21.35;;;9.50;99.90;;;;;;5036162;28;20689;-60
2021/12/15 06:25:52;;;;;;;34.03;22.58;;;9.50;99.90;;;;;;5036417;28;20551;-60
2021/12/15 06:28:20;;;;;;;36.83;24.63;;;9.50;99.90;;;;;;5036078;28;20261;-61
2021/12/15 06:30:47;;;;;;;39.28;24.35;;;9.50;99.90;;;;;;5034872;28;20293;-61
2021/12/15 06:33:16;;;;;;;37.50;24.88;;;9.40;99.90;;;;;;5036194;28;20624;-61
2021/12/15 06:35:52;;;;;;;38.00;25.90;;;9.40;99.90;;;;;;5036255;28;20198;-62
2021/12/15 06:38:22;;;;;;;36.60;23.63;;;9.40;99.90;;;;;;5036150;28;20631;-60
2021/12/15 06:40:50;;;;;;;42.53;26.10;;;9.40;99.90;;;;;;5036841;28;20254;-62
2021/12/15 06:43:18;;;;;;;40.80;25.48;;;9.40;99.90;;;;;;5036197;28;20218;-61
2021/12/15 06:46:01;;;;;;;41.33;25.80;;;9.30;99.90;;;;;;5035797;28;20202;-61
2021/12/15 06:59:31;;;;;;;45.08;25.10;;;9.30;99.90;;;;;;5036645;28;20753;-61
2021/12/15 07:01:59;;;;;;;38.35;24.23;;;9.40;99.90;;;;;;5035601;28;20202;-61
2021/12/15 07:04:27;;;;;;;41.63;24.70;;;9.40;99.90;;;;;;5034748;28;20222;-60
2021/12/15 07:06:57;;;;;;;36.65;23.83;;;9.40;99.90;;;;;;5035356;28;20209;-61
2021/12/15 07:09:25;;;;;;;39.03;24.40;;;9.40;99.90;;;;;;5041105;28;20218;-63
2021/12/15 07:11:53;;;;;;;42.28;26.17;;;9.40;99.90;;;;;;5047883;28;20206;-62
2021/12/15 07:14:21;;;;;;;39.13;25.27;;;9.30;99.90;;;;;;5046981;28;20222;-62
2021/12/15 07:16:52;;;;;;;43.25;24.42;;;9.40;99.90;;;;;;5047120;28;20603;-62
2021/12/15 07:19:32;;;;;;;38.78;24.75;;;9.30;99.90;;;;;;5049733;28;20187;-63
2021/12/15 07:22:09;;;;;;;45.85;25.70;;;9.30;99.90;;;;;;5035154;28;20237;-62
2021/12/15 07:24:40;;;;;;;43.03;25.15;;;9.30;99.90;;;;;;5034798;28;20710;-60
2021/12/15 07:27:08;;;;;;;40.42;25.08;;;9.30;99.90;;;;;;5034703;28;20701;-61
2021/12/15 07:29:38;;;;;;;39.30;24.70;;;9.30;99.90;;;;;;5034794;28;20222;-61
2021/12/15 07:32:07;;;;;;;42.78;25.63;;;9.30;99.90;;;;;;5034302;28;20631;-59
2021/12/15 07:34:37;;;;;;;42.00;26.70;;;9.30;99.90;;;;;;5033835;28;20728;-61
2021/12/15 07:37:05;;;;;;;39.30;27.00;;;9.30;99.90;;;;;;5034283;28;20241;-62
2021/12/15 07:39:32;;;;;;;45.47;25.67;;;9.30;99.90;;;;;;5033976;28;20229;-62
2021/12/15 07:42:06;;;;;;;42.38;24.73;;;9.20;99.90;;;;;;5035143;28;20256;-61
2021/12/15 07:44:34;;;;;;;41.38;26.30;;;9.20;99.90;;;;;;5035928;28;20772;-61
2021/12/15 07:47:02;;;;;;;41.22;26.35;;;9.30;99.90;;;;;;5035955;28;20238;-62
2021/12/15 07:49:31;;;;;;;48.85;26.65;;;9.30;99.90;;;;;;5035020;28;20335;-62
2021/12/15 07:52:04;;;;;;;42.53;27.20;;;9.30;99.90;;;;;;5034246;28;20722;-63
2021/12/15 07:54:34;;;;;;;40.28;25.70;;;9.30;99.90;;;;;;5034000;28;20639;-61
2021/12/15 07:57:07;;;;;;;43.97;25.20;;;9.30;99.90;;;;;;5033854;28;20202;-59
2021/12/15 07:59:35;;;;;;;41.92;25.30;;;9.30;99.90;;;;;;5033319;28;20195;-61
2021/12/15 08:02:02;;;;;;;41.83;25.92;;;9.30;99.90;;;;;;5033996;28;20293;-61
2021/12/15 08:04:30;;;;;;;41.40;24.20;;;9.30;99.90;;;;;;5033746;28;20309;-61
2021/12/15 08:06:58;;;;;;;43.25;26.25;;;9.30;99.90;;;;;;5033651;28;20238;-61
2021/12/15 08:09:25;;;;;;;41.47;26.88;;;9.30;99.90;;;;;;5033754;28;20305;-60
2021/12/15 08:11:52;;;;;;;39.67;25.50;;;9.30;99.90;;;;;;5033673;28;20747;-60
2021/12/15 08:14:21;;;;;;;41.72;25.73;;;9.30;99.90;;;;;;5033736;28;20308;-61
2021/12/15 08:16:51;;;;;;;38.95;26.88;;;9.40;99.90;;;;;;5034669;28;20294;-60
2021/12/15 08:19:19;;;;;;;36.53;23.65;;;9.40;99.90;;;;;;5034716;28;20269;-61
2021/12/15 08:21:47;;;;;;;38.47;24.95;;;9.40;99.90;;;;;;5033494;28;20256;-61
2021/12/15 08:24:15;;;;;;;39.70;24.27;;;9.40;99.90;;;;;;5033234;28;20284;-60
2021/12/15 08:26:42;;;;;;;33.10;22.92;;;9.50;99.90;;;;;;5034078;28;20632;-61
2021/12/15 08:29:10;;;;;;;32.65;22.65;;;9.50;99.90;;;;;;5033617;28;20593;-61
2021/12/15 08:31:39;;;;;;;32.33;22.38;;;9.50;99.90;;;;;;5033660;28;20329;-61
2021/12/15 08:34:08;;;;;;;36.67;22.00;;;9.50;99.90;;;;;;5033810;28;20417;-61
2021/12/15 08:36:39;;;;;;;35.40;22.20;;;9.60;99.90;;;;;;5033913;28;20206;-61
2021/12/15 08:39:09;;;;;;;33.45;21.98;;;9.60;99.90;;;;;;5033485;28;20229;-61
2021/12/15 08:41:38;;;;;;;34.60;23.25;;;9.60;99.90;;;;;;5033108;28;20381;-61
2021/12/15 08:44:08;;;;;;;32.45;22.20;;;9.60;99.90;;;;;;5033028;28;20268;-59
2021/12/15 08:46:40;;;;;;;37.72;22.88;;;9.60;99.90;;;;;;5033749;28;20229;-61
2021/12/15 08:49:09;;;;;;;35.22;23.80;;;9.60;99.90;;;;;;5034135;28;20698;-61
2021/12/15 08:51:37;;;;;;;31.92;22.02;;;9.70;99.90;;;;;;5033545;28;20199;-61
2021/12/15 08:54:08;;;;;;;31.23;22.60;;;9.70;99.90;;;;;;5034192;28;20226;-61
2021/12/15 08:56:37;;;;;;;31.98;21.50;;;9.70;99.90;;;;;;5037063;28;20634;-60
2021/12/15 08:59:05;;;;;;;30.05;21.08;;;9.70;99.90;;;;;;5037061;28;20670;-61
2021/12/15 09:01:33;;;;;;;28.48;19.88;;;9.80;99.90;;;;;;5037481;28;20242;-62
2021/12/15 09:04:02;;;;;;;25.70;19.48;;;9.80;99.90;;;;;;5037879;28;20309;-62
2021/12/15 09:06:30;;;;;;;26.95;18.98;;;9.80;99.90;;;;;;5037170;28;20205;-62
2021/12/15 09:08:57;;;;;;;26.17;18.58;;;9.80;99.90;;;;;;5037141;28;20313;-62
2021/12/15 09:11:30;;;;;;;29.40;19.52;;;9.80;99.90;;;;;;5037137;28;20686;-60
2021/12/15 09:14:01;;;;;;;25.27;19.10;;;9.90;99.90;;;;;;5037023;28;20230;-62
2021/12/15 09:16:30;;;;;;;28.23;19.75;;;9.90;99.90;;;;;;5036733;28;20863;-61
2021/12/15 09:18:58;;;;;;;28.73;19.98;;;9.90;99.90;;;;;;5037266;28;20205;-61
2021/12/15 09:21:29;;;;;;;28.35;18.90;;;9.90;99.90;;;;;;5037855;28;20674;-61
2021/12/15 09:23:58;;;;;;;24.60;17.70;;;10.00;99.90;;;;;;5036116;28;20649;-61
2021/12/15 09:26:27;;;;;;;27.47;18.63;;;10.00;99.90;;;;;;5036863;28;20294;-60
2021/12/15 09:28:54;;;;;;;23.45;17.95;;;10.00;99.90;;;;;;5035801;28;20509;-61
2021/12/15 09:31:26;;;;;;;24.73;17.10;;;10.00;99.90;;;;;;5036016;28;20211;-60
2021/12/15 09:33:55;;;;;;;23.60;16.80;;;10.00;99.90;;;;;;5036932;28;20488;-61
2021/12/15 09:36:24;;;;;;;23.88;17.25;;;10.00;99.90;;;;;;5036057;28;20487;-61
2021/12/15 09:38:57;;;;;;;25.25;16.92;;;10.00;99.90;;;;;;5044981;28;20697;-63
2021/12/15 09:41:25;;;;;;;20.93;16.47;;;10.10;99.90;;;;;;5048424;28;20240;-62
2021/12/15 09:44:06;;;;;;;24.70;17.17;;;10.10;99.90;;;;;;5048402;28;20457;-60
2021/12/15 09:46:40;;;;;;;23.73;17.03;;;10.10;99.90;;;;;;5049147;28;20913;-62
2021/12/15 09:57:46;;;;;;;19.07;14.80;;;10.10;99.90;;;;;;5035717;28;20408;-61
2021/12/15 10:03:06;;;;;;;18.57;15.47;;;10.10;99.90;;;;;;5035303;28;20392;-61
2021/12/15 10:05:46;;;;;;;16.55;13.98;;;10.10;99.90;;;;;;5036076;28;20426;-62
2021/12/15 10:19:40;;;;;;;17.87;13.90;;;10.10;99.90;;;;;;5038846;28;20585;-62
2021/12/15 10:22:14;;;;;;;18.60;15.00;;;10.10;99.90;;;;;;5036490;28;20917;-60
2021/12/15 10:24:48;;;;;;;17.00;14.47;;;10.10;99.90;;;;;;5052506;22;20496;-58
2021/12/15 10:27:21;;;;;;;17.30;14.97;;;10.10;99.90;;;;;;5034874;28;20527;-58
2021/12/15 10:30:00;;;;;;;19.57;15.80;;;10.10;99.90;;;;;;5034358;28;20508;-59
2021/12/15 10:32:35;;;;;;;17.90;15.23;;;10.10;99.90;;;;;;5034378;28;20528;-58
2021/12/15 10:35:08;;;;;;;16.87;14.20;;;10.10;99.90;;;;;;5034046;28;20469;-58
2021/12/15 10:37:35;;;;;;;18.48;16.23;;;10.10;99.90;;;;;;5034149;28;20528;-58
2021/12/15 10:40:21;;;;;;;18.60;16.20;;;10.20;99.90;;;;;;5033961;28;20630;-58
2021/12/15 10:43:01;;;;;;;23.02;16.50;;;10.20;99.90;;;;;;5033985;28;20464;-60
2021/12/15 10:45:36;;;;;;;18.60;14.87;;;10.20;99.90;;;;;;5034313;28;20250;-58
2021/12/15 10:48:09;;;;;;;20.77;16.50;;;10.20;99.90;;;;;;5033888;28;20901;-58
2021/12/15 10:50:38;;;;;;;19.90;17.10;;;10.20;99.90;;;;;;5033949;28;20540;-57
2021/12/15 10:53:07;;;;;;;18.27;15.73;;;10.20;99.90;;;;;;5033477;28;20448;-58
2021/12/15 10:55:37;;;;;;;23.10;16.90;;;10.30;99.90;;;;;;5034148;28;20551;-58
2021/12/15 10:58:35;;;;;;;20.60;16.80;;;10.30;99.90;;;;;;5033581;28;20453;-58
2021/12/15 11:01:04;;;;;;;19.90;15.20;;;10.30;99.90;;;;;;5033667;28;20520;-58
2021/12/15 11:03:37;;;;;;;18.97;15.60;;;10.30;99.90;;;;;;5033500;28;20484;-58
2021/12/15 11:06:21;;;;;;;19.80;15.70;;;10.30;99.90;;;;;;5033588;28;20914;-58
2021/12/15 11:08:49;;;;;;;19.90;17.10;;;10.30;99.90;;;;;;5033429;28;20430;-58
2021/12/15 11:11:29;;;;;;;22.77;19.00;;;10.30;99.90;;;;;;5033413;28;20961;-58
2021/12/15 11:13:59;;;;;;;18.97;14.97;;;10.30;99.90;;;;;;5033639;28;20471;-59
2021/12/15 11:16:31;;;;;;;19.50;16.40;;;10.30;99.90;;;;;;5032941;28;20475;-59
2021/12/15 11:19:00;;;;;;;22.67;17.50;;;10.30;99.90;;;;;;5033683;28;20531;-59
2021/12/15 11:21:32;;;;;;;19.37;15.37;;;10.40;99.90;;;;;;5033596;28;20449;-58
2021/12/15 11:24:01;;;;;;;20.60;17.73;;;10.40;99.90;;;;;;5033257;28;20902;-58
2021/12/15 11:26:31;;;;;;;18.43;15.20;;;10.40;99.90;;;;;;5033444;28;20198;-58
2021/12/15 11:29:00;;;;;;;22.23;17.10;;;10.40;99.90;;;;;;5033416;28;20455;-58
2021/12/15 11:31:31;;;;;;;19.23;16.50;;;10.40;99.90;;;;;;5032601;28;20576;-58
2021/12/15 11:34:02;;;;;;;20.88;17.15;;;10.30;99.90;;;;;;5033304;28;20469;-58
2021/12/15 11:36:32;;;;;;;23.00;18.13;;;10.40;99.90;;;;;;5033311;28;20269;-58
2021/12/15 11:39:04;;;;;;;21.90;17.70;;;10.40;99.90;;;;;;5033070;28;20476;-58
2021/12/15 11:41:39;;;;;;;25.47;19.77;;;10.40;99.90;;;;;;5033630;28;20465;-58
2021/12/15 11:44:12;;;;;;;21.17;17.27;;;10.40;99.90;;;;;;5032875;28;20578;-58
2021/12/15 11:46:42;;;;;;;20.27;16.60;;;10.40;99.90;;;;;;5033307;28;20461;-58
2021/12/15 11:49:13;;;;;;;21.00;16.00;;;10.50;99.90;;;;;;5033133;28;20488;-58
2021/12/15 11:51:48;;;;;;;23.00;16.63;;;10.50;99.90;;;;;;5033187;28;20476;-57
2021/12/15 11:54:19;;;;;;;21.85;16.95;;;10.50;99.90;;;;;;5032778;28;20558;-58
2021/12/15 11:56:48;;;;;;;24.20;19.03;;;10.50;99.90;;;;;;5032818;28;20273;-58
2021/12/15 11:59:21;;;;;;;21.17;17.73;;;10.60;99.90;;;;;;5033023;28;20941;-58
2021/12/15 12:01:56;;;;;;;24.03;17.87;;;10.60;99.90;;;;;;5033188;28;20213;-59
2021/12/15 12:04:26;;;;;;;23.80;18.77;;;10.60;99.90;;;;;;5032567;28;20983;-58
2021/12/15 12:06:57;;;;;;;20.47;16.87;;;10.60;99.90;;;;;;5032597;28;20948;-58
2021/12/15 12:09:25;;;;;;;25.93;19.00;;;10.60;99.90;;;;;;5032742;28;20508;-58
2021/12/15 12:12:00;;;;;;;21.23;18.67;;;10.60;99.90;;;;;;5032861;28;20507;-59
2021/12/15 12:14:43;;;;;;;22.57;18.00;;;10.60;99.90;;;;;;5033265;28;20805;-58
2021/12/15 12:17:13;;;;;;;22.97;17.80;;;10.60;99.90;;;;;;5033185;28;20521;-58
2021/12/15 12:19:49;;;;;;;23.27;17.27;;;10.70;99.90;;;;;;5032999;28;20433;-58
2021/12/15 12:22:17;;;;;;;20.37;17.07;;;10.60;99.90;;;;;;5032202;28;20491;-58
2021/12/15 12:24:46;;;;;;;20.55;15.98;;;10.70;99.90;;;;;;5032480;28;20508;-58
2021/12/15 12:27:14;;;;;;;23.30;16.90;;;10.70;99.90;;;;;;5033004;28;20212;-58
2021/12/15 12:29:43;;;;;;;22.77;18.23;;;10.70;99.90;;;;;;5034862;28;20491;-58
2021/12/15 12:32:11;;;;;;;21.27;15.57;;;10.70;99.90;;;;;;5036608;28;20992;-58
2021/12/15 12:34:41;;;;;;;20.47;15.70;;;10.70;99.90;;;;;;5036408;28;20547;-57
2021/12/15 12:37:11;;;;;;;22.07;16.80;;;10.80;99.90;;;;;;5036344;28;20445;-58
2021/12/15 12:39:43;;;;;;;25.13;16.67;;;10.80;99.90;;;;;;5036923;28;20426;-58
2021/12/15 12:42:11;;;;;;;21.97;16.73;;;10.80;99.90;;;;;;5036487;28;20524;-58
2021/12/15 12:44:44;;;;;;;17.20;15.07;;;10.80;99.90;;;;;;5036749;28;20560;-58
2021/12/15 12:47:28;;;;;;;21.37;16.33;;;10.90;99.90;;;;;;5036678;28;20429;-58
2021/12/15 13:00:55;;;;;;;18.73;15.30;;;11.00;99.90;;;;;;5036073;28;20396;-59
2021/12/15 13:03:33;;;;;;;18.23;14.83;;;11.00;99.90;;;;;;5036056;28;20433;-59
2021/12/15 13:06:03;;;;;;;19.00;15.30;;;11.00;99.90;;;;;;5036124;28;20429;-59
2021/12/15 13:08:39;;;;;;;17.90;14.80;;;11.00;99.90;;;;;;5036092;28;20453;-59
2021/12/15 13:11:16;;;;;;;17.90;14.80;;;11.00;99.90;;;;;;5035872;28;20476;-59
2021/12/15 13:13:57;;;;;;;18.63;14.80;;;11.00;99.90;;;;;;5035583;28;20836;-59
2021/12/15 13:16:31;;;;;;;20.53;14.97;;;10.90;99.90;;;;;;5035901;28;20439;-60
2021/12/15 13:19:03;;;;;;;21.00;14.57;;;10.90;99.90;;;;;;5035835;28;20441;-60
2021/12/15 13:21:42;;;;;;;19.20;15.67;;;10.90;99.90;;;;;;5035558;28;20916;-60
2021/12/15 13:28:44;;;;;;;22.13;15.63;;;10.90;99.90;;;;;;5035550;28;20520;-60
2021/12/15 13:30:25;;;;;;;20.93;17.33;;;10.80;99.90;;;;;;5035731;28;20483;-59
2021/12/15 13:32:54;;;;;;;24.10;16.30;;;10.80;99.90;;;;;;5035664;28;20783;-59
2021/12/15 13:35:28;;;;;;;22.13;16.83;;;10.70;99.90;;;;;;5035446;28;20469;-60
2021/12/15 13:37:59;;;;;;;28.47;17.70;;;10.70;99.90;;;;;;5035577;28;20455;-60
2021/12/15 13:40:59;;;;;;;24.53;17.30;;;10.70;99.90;;;;;;5034881;28;20575;-60
2021/12/15 13:43:57;;;;;;;24.00;16.80;;;10.70;99.90;;;;;;5034929;28;20527;-59
2021/12/15 13:46:46;;;;;;;28.27;18.40;;;10.60;99.90;;;;;;5023546;28;20809;-60
2021/12/15 13:49:29;;;;;;;24.10;17.23;;;10.60;99.90;;;;;;5035391;28;20425;-60
2021/12/15 13:52:08;;;;;;;27.03;17.33;;;10.70;99.90;;;;;;5034793;28;20440;-59
2021/12/15 13:55:11;;;;;;;28.20;19.23;;;10.70;99.90;;;;;;5034860;28;20461;-60
2021/12/15 13:57:40;;;;;;;25.43;18.63;;;10.70;99.90;;;;;;5034986;28;20429;-60
2021/12/15 14:00:23;;;;;;;29.13;19.10;;;10.60;99.90;;;;;;5035566;28;20449;-60
2021/12/15 14:03:05;;;;;;;29.13;19.90;;;10.60;99.90;;;;;;5034883;28;20433;-60
2021/12/15 14:05:34;;;;;;;34.77;19.63;;;10.60;99.90;;;;;;5034645;28;20465;-60
2021/12/15 14:08:07;;;;;;;29.93;20.90;;;10.60;99.90;;;;;;5034802;28;20455;-60
2021/12/15 14:10:57;;;;;;;44.07;21.70;;;10.60;99.90;;;;;;5034444;28;20469;-60